sensor_id;sensor_type;location;lat;lon;timestamp;P1;durP1;ratioP1;P2;durP2;ratioP2
12059;SDS011;6091;51.432;6.880;2022-12-05T00:01:30;5.60;;;5.18;;
12059;SDS011;6091;51.432;6.880;2022-12-05T00:04:07;6.15;;;5.53;;
12059;SDS011;6091;51.432;6.880;2022-12-05T00:06:37;6.30;;;5.70;;
12059;SDS011;6091;51.432;6.880;2022-12-05T00:09:07;5.88;;;5.28;;
12059;SDS011;6091;51.432;6.880;2022-12-05T00:11:40;5.82;;;5.32;;
12059;SDS011;6091;51.432;6.880;2022-12-05T00:14:09;6.22;;;5.63;;
12059;SDS011;6091;51.432;6.880;2022-12-05T00:16:38;6.60;;;6.00;;
12059;SDS011;6091;51.432;6.880;2022-12-05T00:19:09;6.10;;;5.60;;
12059;SDS011;6091;51.432;6.880;2022-12-05T00:21:39;6.00;;;5.50;;
12059;SDS011;6091;51.432;6.880;2022-12-05T00:24:11;5.88;;;5.38;;
12059;SDS011;6091;51.432;6.880;2022-12-05T00:26:41;6.00;;;5.40;;
12059;SDS011;6091;51.432;6.880;2022-12-05T00:29:08;5.90;;;5.43;;
12059;SDS011;6091;51.432;6.880;2022-12-05T00:31:36;6.03;;;5.53;;
12059;SDS011;6091;51.432;6.880;2022-12-05T00:34:03;5.63;;;5.13;;
12059;SDS011;6091;51.432;6.880;2022-12-05T00:36:30;5.80;;;5.30;;
12059;SDS011;6091;51.432;6.880;2022-12-05T00:39:00;5.75;;;5.25;;
12059;SDS011;6091;51.432;6.880;2022-12-05T00:41:31;5.90;;;5.40;;
12059;SDS011;6091;51.432;6.880;2022-12-05T00:43:59;6.20;;;5.70;;
12059;SDS011;6091;51.432;6.880;2022-12-05T00:46:28;6.18;;;5.68;;
12059;SDS011;6091;51.432;6.880;2022-12-05T00:48:58;6.00;;;5.50;;
12059;SDS011;6091;51.432;6.880;2022-12-05T00:51:31;5.90;;;5.40;;
12059;SDS011;6091;51.432;6.880;2022-12-05T00:54:03;6.20;;;5.70;;
12059;SDS011;6091;51.432;6.880;2022-12-05T00:56:34;6.25;;;5.72;;
12059;SDS011;6091;51.432;6.880;2022-12-05T00:59:02;5.75;;;5.25;;
12059;SDS011;6091;51.432;6.880;2022-12-05T01:01:37;5.10;;;4.70;;
12059;SDS011;6091;51.432;6.880;2022-12-05T01:04:08;5.95;;;5.38;;
12059;SDS011;6091;51.432;6.880;2022-12-05T01:06:47;5.80;;;5.30;;
12059;SDS011;6091;51.432;6.880;2022-12-05T01:09:19;6.18;;;5.68;;
12059;SDS011;6091;51.432;6.880;2022-12-05T01:11:47;5.82;;;5.25;;
12059;SDS011;6091;51.432;6.880;2022-12-05T01:14:18;5.80;;;5.30;;
12059;SDS011;6091;51.432;6.880;2022-12-05T01:16:50;5.75;;;5.25;;
12059;SDS011;6091;51.432;6.880;2022-12-05T01:19:24;6.57;;;5.97;;
12059;SDS011;6091;51.432;6.880;2022-12-05T01:21:57;5.78;;;5.28;;
12059;SDS011;6091;51.432;6.880;2022-12-05T01:24:25;6.20;;;5.70;;
12059;SDS011;6091;51.432;6.880;2022-12-05T01:26:56;5.88;;;5.38;;
12059;SDS011;6091;51.432;6.880;2022-12-05T01:29:23;6.18;;;5.55;;
12059;SDS011;6091;51.432;6.880;2022-12-05T01:31:51;6.18;;;5.68;;
12059;SDS011;6091;51.432;6.880;2022-12-05T01:34:21;5.68;;;5.18;;
12059;SDS011;6091;51.432;6.880;2022-12-05T01:36:48;6.05;;;5.55;;
12059;SDS011;6091;51.432;6.880;2022-12-05T01:39:15;5.70;;;5.20;;
12059;SDS011;6091;51.432;6.880;2022-12-05T01:41:43;5.78;;;5.28;;
12059;SDS011;6091;51.432;6.880;2022-12-05T01:46:47;5.63;;;5.13;;
12059;SDS011;6091;51.432;6.880;2022-12-05T01:52:00;5.40;;;5.00;;
12059;SDS011;6091;51.432;6.880;2022-12-05T01:54:36;5.85;;;5.35;;
12059;SDS011;6091;51.432;6.880;2022-12-05T01:57:08;5.50;;;5.00;;
12059;SDS011;6091;51.432;6.880;2022-12-05T01:59:38;5.88;;;5.38;;
12059;SDS011;6091;51.432;6.880;2022-12-05T02:02:13;6.07;;;5.47;;
12059;SDS011;6091;51.432;6.880;2022-12-05T02:04:44;5.88;;;5.38;;
12059;SDS011;6091;51.432;6.880;2022-12-05T02:07:33;5.85;;;5.35;;
12059;SDS011;6091;51.432;6.880;2022-12-05T02:10:05;5.88;;;5.38;;
12059;SDS011;6091;51.432;6.880;2022-12-05T02:12:36;5.88;;;5.38;;
12059;SDS011;6091;51.432;6.880;2022-12-05T02:27:38;6.63;;;6.03;;
12059;SDS011;6091;51.432;6.880;2022-12-05T02:30:18;5.93;;;5.43;;
12059;SDS011;6091;51.432;6.880;2022-12-05T02:33:02;5.88;;;5.32;;
12059;SDS011;6091;51.432;6.880;2022-12-05T02:36:06;5.85;;;5.35;;
12059;SDS011;6091;51.432;6.880;2022-12-05T02:41:33;5.72;;;5.22;;
12059;SDS011;6091;51.432;6.880;2022-12-05T02:44:12;5.90;;;5.40;;
12059;SDS011;6091;51.432;6.880;2022-12-05T02:46:59;5.43;;;4.93;;
12059;SDS011;6091;51.432;6.880;2022-12-05T02:49:29;6.22;;;5.70;;
12059;SDS011;6091;51.432;6.880;2022-12-05T02:52:01;5.47;;;4.97;;
12059;SDS011;6091;51.432;6.880;2022-12-05T02:54:36;5.38;;;4.97;;
12059;SDS011;6091;51.432;6.880;2022-12-05T02:57:07;5.97;;;5.47;;
12059;SDS011;6091;51.432;6.880;2022-12-05T02:59:42;6.43;;;5.82;;
12059;SDS011;6091;51.432;6.880;2022-12-05T03:02:20;5.70;;;5.20;;
12059;SDS011;6091;51.432;6.880;2022-12-05T03:05:20;5.55;;;5.05;;
12059;SDS011;6091;51.432;6.880;2022-12-05T03:08:22;5.97;;;5.43;;
12059;SDS011;6091;51.432;6.880;2022-12-05T03:10:56;5.75;;;5.25;;
12059;SDS011;6091;51.432;6.880;2022-12-05T03:13:30;6.00;;;5.50;;
12059;SDS011;6091;51.432;6.880;2022-12-05T03:16:30;5.70;;;5.20;;
12059;SDS011;6091;51.432;6.880;2022-12-05T03:19:11;5.72;;;5.25;;
12059;SDS011;6091;51.432;6.880;2022-12-05T03:21:49;6.22;;;5.72;;
12059;SDS011;6091;51.432;6.880;2022-12-05T03:24:26;6.32;;;5.72;;
12059;SDS011;6091;51.432;6.880;2022-12-05T03:30:18;5.78;;;5.28;;
12059;SDS011;6091;51.432;6.880;2022-12-05T03:32:53;5.97;;;5.47;;
12059;SDS011;6091;51.432;6.880;2022-12-05T03:35:43;6.10;;;5.60;;
12059;SDS011;6091;51.432;6.880;2022-12-05T03:38:24;5.60;;;5.10;;
12059;SDS011;6091;51.432;6.880;2022-12-05T03:41:21;5.55;;;5.05;;
12059;SDS011;6091;51.432;6.880;2022-12-05T03:47:09;5.88;;;5.38;;
12059;SDS011;6091;51.432;6.880;2022-12-05T03:49:49;6.20;;;5.70;;
12059;SDS011;6091;51.432;6.880;2022-12-05T03:52:35;6.03;;;5.53;;
12059;SDS011;6091;51.432;6.880;2022-12-05T03:55:32;5.68;;;5.18;;
12059;SDS011;6091;51.432;6.880;2022-12-05T03:58:05;6.10;;;5.60;;
12059;SDS011;6091;51.432;6.880;2022-12-05T04:00:52;6.10;;;5.60;;
12059;SDS011;6091;51.432;6.880;2022-12-05T04:03:25;5.95;;;5.45;;
12059;SDS011;6091;51.432;6.880;2022-12-05T04:06:20;5.78;;;5.28;;
12059;SDS011;6091;51.432;6.880;2022-12-05T04:09:03;5.78;;;5.28;;
12059;SDS011;6091;51.432;6.880;2022-12-05T04:11:42;5.78;;;5.28;;
12059;SDS011;6091;51.432;6.880;2022-12-05T04:14:27;6.22;;;5.72;;
12059;SDS011;6091;51.432;6.880;2022-12-05T04:17:08;6.45;;;5.85;;
12059;SDS011;6091;51.432;6.880;2022-12-05T04:20:04;6.30;;;5.80;;
12059;SDS011;6091;51.432;6.880;2022-12-05T04:23:04;6.15;;;5.60;;
12059;SDS011;6091;51.432;6.880;2022-12-05T04:28:41;6.10;;;5.60;;
12059;SDS011;6091;51.432;6.880;2022-12-05T04:31:24;5.93;;;5.43;;
12059;SDS011;6091;51.432;6.880;2022-12-05T04:34:01;5.68;;;5.18;;
12059;SDS011;6091;51.432;6.880;2022-12-05T04:36:38;6.10;;;5.57;;
12059;SDS011;6091;51.432;6.880;2022-12-05T04:40:08;6.45;;;5.93;;
12059;SDS011;6091;51.432;6.880;2022-12-05T04:42:38;5.65;;;5.20;;
12059;SDS011;6091;51.432;6.880;2022-12-05T04:45:11;5.90;;;5.40;;
12059;SDS011;6091;51.432;6.880;2022-12-05T04:47:46;6.80;;;6.20;;
12059;SDS011;6091;51.432;6.880;2022-12-05T04:50:19;6.18;;;5.60;;
12059;SDS011;6091;51.432;6.880;2022-12-05T04:52:50;6.28;;;5.68;;
12059;SDS011;6091;51.432;6.880;2022-12-05T04:55:22;5.82;;;5.32;;
12059;SDS011;6091;51.432;6.880;2022-12-05T04:58:02;6.07;;;5.57;;
12059;SDS011;6091;51.432;6.880;2022-12-05T05:00:45;6.57;;;6.05;;
12059;SDS011;6091;51.432;6.880;2022-12-05T05:06:15;6.68;;;6.13;;
12059;SDS011;6091;51.432;6.880;2022-12-05T05:08:53;6.18;;;5.68;;
12059;SDS011;6091;51.432;6.880;2022-12-05T05:11:27;6.18;;;5.68;;
12059;SDS011;6091;51.432;6.880;2022-12-05T05:13:56;5.72;;;5.28;;
12059;SDS011;6091;51.432;6.880;2022-12-05T05:16:25;6.05;;;5.55;;
12059;SDS011;6091;51.432;6.880;2022-12-05T05:18:57;6.15;;;5.65;;
12059;SDS011;6091;51.432;6.880;2022-12-05T05:21:25;6.65;;;6.13;;
12059;SDS011;6091;51.432;6.880;2022-12-05T05:23:56;6.38;;;5.80;;
12059;SDS011;6091;51.432;6.880;2022-12-05T05:26:24;6.47;;;5.88;;
12059;SDS011;6091;51.432;6.880;2022-12-05T05:28:52;6.00;;;5.50;;
12059;SDS011;6091;51.432;6.880;2022-12-05T05:31:23;6.10;;;5.53;;
12059;SDS011;6091;51.432;6.880;2022-12-05T05:33:55;6.10;;;5.60;;
12059;SDS011;6091;51.432;6.880;2022-12-05T05:36:23;6.40;;;5.90;;
12059;SDS011;6091;51.432;6.880;2022-12-05T05:38:56;5.53;;;5.07;;
12059;SDS011;6091;51.432;6.880;2022-12-05T05:41:30;6.47;;;5.90;;
12059;SDS011;6091;51.432;6.880;2022-12-05T05:44:00;6.60;;;6.00;;
12059;SDS011;6091;51.432;6.880;2022-12-05T05:46:30;6.35;;;5.82;;
12059;SDS011;6091;51.432;6.880;2022-12-05T05:48:59;6.70;;;6.20;;
12059;SDS011;6091;51.432;6.880;2022-12-05T05:51:32;6.25;;;5.65;;
12059;SDS011;6091;51.432;6.880;2022-12-05T05:53:59;5.65;;;5.15;;
12059;SDS011;6091;51.432;6.880;2022-12-05T05:56:26;5.93;;;5.43;;
12059;SDS011;6091;51.432;6.880;2022-12-05T05:58:57;6.32;;;5.82;;
12059;SDS011;6091;51.432;6.880;2022-12-05T06:01:27;6.10;;;5.60;;
12059;SDS011;6091;51.432;6.880;2022-12-05T06:03:55;6.38;;;5.78;;
12059;SDS011;6091;51.432;6.880;2022-12-05T06:06:23;6.70;;;6.10;;
12059;SDS011;6091;51.432;6.880;2022-12-05T06:08:51;6.82;;;6.22;;
12059;SDS011;6091;51.432;6.880;2022-12-05T06:11:24;6.75;;;6.15;;
12059;SDS011;6091;51.432;6.880;2022-12-05T06:13:56;6.47;;;5.97;;
12059;SDS011;6091;51.432;6.880;2022-12-05T06:16:28;6.07;;;5.57;;
12059;SDS011;6091;51.432;6.880;2022-12-05T06:18:57;6.03;;;5.53;;
12059;SDS011;6091;51.432;6.880;2022-12-05T06:21:27;6.28;;;5.78;;
12059;SDS011;6091;51.432;6.880;2022-12-05T06:23:54;6.05;;;5.55;;
12059;SDS011;6091;51.432;6.880;2022-12-05T06:26:22;6.85;;;6.25;;
12059;SDS011;6091;51.432;6.880;2022-12-05T06:28:49;6.57;;;5.97;;
12059;SDS011;6091;51.432;6.880;2022-12-05T06:31:20;6.28;;;5.78;;
12059;SDS011;6091;51.432;6.880;2022-12-05T06:33:49;6.63;;;6.07;;
12059;SDS011;6091;51.432;6.880;2022-12-05T06:36:18;5.95;;;5.45;;
12059;SDS011;6091;51.432;6.880;2022-12-05T06:38:47;5.78;;;5.38;;
12059;SDS011;6091;51.432;6.880;2022-12-05T06:41:15;6.30;;;5.70;;
12059;SDS011;6091;51.432;6.880;2022-12-05T06:43:46;6.18;;;5.68;;
12059;SDS011;6091;51.432;6.880;2022-12-05T06:46:16;6.47;;;5.90;;
12059;SDS011;6091;51.432;6.880;2022-12-05T06:48:43;5.57;;;5.18;;
12059;SDS011;6091;51.432;6.880;2022-12-05T06:51:11;6.07;;;5.57;;
12059;SDS011;6091;51.432;6.880;2022-12-05T06:53:42;6.03;;;5.53;;
12059;SDS011;6091;51.432;6.880;2022-12-05T06:56:11;6.18;;;5.68;;
12059;SDS011;6091;51.432;6.880;2022-12-05T06:58:42;6.45;;;5.85;;
12059;SDS011;6091;51.432;6.880;2022-12-05T07:01:11;6.65;;;5.88;;
12059;SDS011;6091;51.432;6.880;2022-12-05T07:04:18;6.13;;;5.63;;
12059;SDS011;6091;51.432;6.880;2022-12-05T07:06:50;6.47;;;5.80;;
12059;SDS011;6091;51.432;6.880;2022-12-05T07:09:20;6.03;;;5.53;;
12059;SDS011;6091;51.432;6.880;2022-12-05T07:12:12;6.75;;;5.97;;
12059;SDS011;6091;51.432;6.880;2022-12-05T07:14:42;6.45;;;5.85;;
12059;SDS011;6091;51.432;6.880;2022-12-05T07:17:15;5.97;;;5.28;;
12059;SDS011;6091;51.432;6.880;2022-12-05T07:19:47;6.85;;;5.97;;
12059;SDS011;6091;51.432;6.880;2022-12-05T07:22:16;6.53;;;5.82;;
12059;SDS011;6091;51.432;6.880;2022-12-05T07:24:46;6.63;;;5.88;;
12059;SDS011;6091;51.432;6.880;2022-12-05T07:27:16;6.35;;;5.75;;
12059;SDS011;6091;51.432;6.880;2022-12-05T07:29:51;6.10;;;5.57;;
12059;SDS011;6091;51.432;6.880;2022-12-05T07:32:20;6.80;;;5.90;;
12059;SDS011;6091;51.432;6.880;2022-12-05T07:34:47;6.40;;;5.80;;
12059;SDS011;6091;51.432;6.880;2022-12-05T07:37:20;6.50;;;6.00;;
12059;SDS011;6091;51.432;6.880;2022-12-05T07:39:47;6.40;;;5.82;;
12059;SDS011;6091;51.432;6.880;2022-12-05T07:42:14;6.43;;;5.93;;
12059;SDS011;6091;51.432;6.880;2022-12-05T07:44:41;6.63;;;5.93;;
12059;SDS011;6091;51.432;6.880;2022-12-05T07:47:09;6.40;;;5.80;;
12059;SDS011;6091;51.432;6.880;2022-12-05T07:49:41;6.32;;;5.72;;
12059;SDS011;6091;51.432;6.880;2022-12-05T07:52:08;6.78;;;6.18;;
12059;SDS011;6091;51.432;6.880;2022-12-05T07:54:35;6.10;;;5.60;;
12059;SDS011;6091;51.432;6.880;2022-12-05T07:57:02;6.10;;;5.60;;
12059;SDS011;6091;51.432;6.880;2022-12-05T07:59:30;6.20;;;5.60;;
12059;SDS011;6091;51.432;6.880;2022-12-05T08:01:57;5.82;;;5.13;;
12059;SDS011;6091;51.432;6.880;2022-12-05T08:04:25;7.38;;;6.68;;
12059;SDS011;6091;51.432;6.880;2022-12-05T08:06:52;8.10;;;6.65;;
12059;SDS011;6091;51.432;6.880;2022-12-05T08:09:19;6.32;;;5.72;;
12059;SDS011;6091;51.432;6.880;2022-12-05T08:11:46;5.60;;;5.10;;
12059;SDS011;6091;51.432;6.880;2022-12-05T08:14:18;5.65;;;5.15;;
12059;SDS011;6091;51.432;6.880;2022-12-05T08:16:45;5.55;;;5.07;;
12059;SDS011;6091;51.432;6.880;2022-12-05T08:19:13;6.35;;;5.50;;
12059;SDS011;6091;51.432;6.880;2022-12-05T08:21:42;5.47;;;4.97;;
12059;SDS011;6091;51.432;6.880;2022-12-05T08:24:09;5.20;;;4.80;;
12059;SDS011;6091;51.432;6.880;2022-12-05T08:26:43;6.60;;;5.78;;
12059;SDS011;6091;51.432;6.880;2022-12-05T08:29:13;6.28;;;4.88;;
12059;SDS011;6091;51.432;6.880;2022-12-05T08:31:45;7.85;;;5.47;;
12059;SDS011;6091;51.432;6.880;2022-12-05T08:34:16;7.88;;;5.18;;
12059;SDS011;6091;51.432;6.880;2022-12-05T08:36:48;8.85;;;5.53;;
12059;SDS011;6091;51.432;6.880;2022-12-05T08:39:16;9.20;;;5.20;;
12059;SDS011;6091;51.432;6.880;2022-12-05T08:41:45;6.72;;;5.35;;
12059;SDS011;6091;51.432;6.880;2022-12-05T08:44:14;7.22;;;5.15;;
12059;SDS011;6091;51.432;6.880;2022-12-05T08:46:44;5.72;;;4.68;;
12059;SDS011;6091;51.432;6.880;2022-12-05T08:49:15;6.35;;;4.60;;
12059;SDS011;6091;51.432;6.880;2022-12-05T08:51:43;4.93;;;4.40;;
12059;SDS011;6091;51.432;6.880;2022-12-05T08:54:11;8.10;;;5.07;;
12059;SDS011;6091;51.432;6.880;2022-12-05T08:56:42;5.97;;;4.57;;
12059;SDS011;6091;51.432;6.880;2022-12-05T08:59:09;7.90;;;4.95;;
12059;SDS011;6091;51.432;6.880;2022-12-05T09:01:36;6.10;;;5.18;;
12059;SDS011;6091;51.432;6.880;2022-12-05T09:04:05;5.70;;;5.10;;
12059;SDS011;6091;51.432;6.880;2022-12-05T09:06:33;5.85;;;4.78;;
12059;SDS011;6091;51.432;6.880;2022-12-05T09:09:03;6.97;;;4.45;;
12059;SDS011;6091;51.432;6.880;2022-12-05T09:11:38;5.43;;;4.40;;
12059;SDS011;6091;51.432;6.880;2022-12-05T09:14:12;7.50;;;4.13;;
12059;SDS011;6091;51.432;6.880;2022-12-05T09:16:44;5.57;;;4.40;;
12059;SDS011;6091;51.432;6.880;2022-12-05T09:19:17;5.20;;;4.70;;
12059;SDS011;6091;51.432;6.880;2022-12-05T09:21:50;4.60;;;4.18;;
12059;SDS011;6091;51.432;6.880;2022-12-05T09:24:17;6.75;;;4.18;;
12059;SDS011;6091;51.432;6.880;2022-12-05T09:26:45;11.13;;;4.65;;
12059;SDS011;6091;51.432;6.880;2022-12-05T09:29:15;6.28;;;4.32;;
12059;SDS011;6091;51.432;6.880;2022-12-05T09:31:44;4.95;;;4.20;;
12059;SDS011;6091;51.432;6.880;2022-12-05T09:34:19;4.88;;;4.38;;
12059;SDS011;6091;51.432;6.880;2022-12-05T09:36:46;7.70;;;4.78;;
12059;SDS011;6091;51.432;6.880;2022-12-05T09:39:27;6.13;;;4.20;;
12059;SDS011;6091;51.432;6.880;2022-12-05T09:44:40;6.38;;;4.10;;
12059;SDS011;6091;51.432;6.880;2022-12-05T09:47:50;4.13;;;3.72;;
12059;SDS011;6091;51.432;6.880;2022-12-05T09:50:49;5.57;;;3.63;;
12059;SDS011;6091;51.432;6.880;2022-12-05T09:53:27;7.50;;;4.45;;
12059;SDS011;6091;51.432;6.880;2022-12-05T09:58:47;5.18;;;4.13;;
12059;SDS011;6091;51.432;6.880;2022-12-05T10:01:38;7.60;;;4.43;;
12059;SDS011;6091;51.432;6.880;2022-12-05T10:04:14;7.75;;;3.90;;
12059;SDS011;6091;51.432;6.880;2022-12-05T10:15:56;5.97;;;4.03;;
12059;SDS011;6091;51.432;6.880;2022-12-05T10:18:36;6.32;;;4.00;;
12059;SDS011;6091;51.432;6.880;2022-12-05T10:21:15;8.88;;;3.95;;
12059;SDS011;6091;51.432;6.880;2022-12-05T10:26:28;5.80;;;3.80;;
12059;SDS011;6091;51.432;6.880;2022-12-05T10:32:05;6.10;;;3.88;;
12059;SDS011;6091;51.432;6.880;2022-12-05T10:35:16;6.45;;;4.20;;
12059;SDS011;6091;51.432;6.880;2022-12-05T10:37:52;5.88;;;3.17;;
12059;SDS011;6091;51.432;6.880;2022-12-05T10:40:26;8.75;;;4.32;;
12059;SDS011;6091;51.432;6.880;2022-12-05T10:43:09;7.22;;;3.88;;
12059;SDS011;6091;51.432;6.880;2022-12-05T10:45:45;9.45;;;3.88;;
12059;SDS011;6091;51.432;6.880;2022-12-05T10:48:14;6.97;;;3.80;;
12059;SDS011;6091;51.432;6.880;2022-12-05T10:50:45;6.82;;;3.75;;
12059;SDS011;6091;51.432;6.880;2022-12-05T10:53:17;7.93;;;4.10;;
12059;SDS011;6091;51.432;6.880;2022-12-05T10:56:05;9.60;;;3.85;;
12059;SDS011;6091;51.432;6.880;2022-12-05T10:59:21;13.27;;;3.95;;
12059;SDS011;6091;51.432;6.880;2022-12-05T11:01:55;9.07;;;3.50;;
12059;SDS011;6091;51.432;6.880;2022-12-05T11:04:47;12.98;;;4.78;;
12059;SDS011;6091;51.432;6.880;2022-12-05T11:07:31;7.63;;;4.00;;
12059;SDS011;6091;51.432;6.880;2022-12-05T11:10:21;8.55;;;3.85;;
12059;SDS011;6091;51.432;6.880;2022-12-05T11:13:00;11.15;;;5.05;;
12059;SDS011;6091;51.432;6.880;2022-12-05T11:15:44;11.55;;;4.53;;
12059;SDS011;6091;51.432;6.880;2022-12-05T11:20:54;8.93;;;3.72;;
12059;SDS011;6091;51.432;6.880;2022-12-05T11:23:28;6.70;;;3.83;;
12059;SDS011;6091;51.432;6.880;2022-12-05T11:25:56;9.77;;;4.07;;
12059;SDS011;6091;51.432;6.880;2022-12-05T11:31:20;9.82;;;3.75;;
12059;SDS011;6091;51.432;6.880;2022-12-05T11:34:08;11.55;;;3.90;;
12059;SDS011;6091;51.432;6.880;2022-12-05T11:36:53;6.97;;;3.90;;
12059;SDS011;6091;51.432;6.880;2022-12-05T11:39:50;6.75;;;3.75;;
12059;SDS011;6091;51.432;6.880;2022-12-05T11:46:11;8.75;;;3.40;;
12059;SDS011;6091;51.432;6.880;2022-12-05T11:51:05;4.30;;;3.88;;
12059;SDS011;6091;51.432;6.880;2022-12-05T11:53:48;4.93;;;3.90;;
12059;SDS011;6091;51.432;6.880;2022-12-05T12:00:22;6.50;;;3.40;;
12059;SDS011;6091;51.432;6.880;2022-12-05T12:09:38;6.07;;;4.10;;
12059;SDS011;6091;51.432;6.880;2022-12-05T12:12:21;6.85;;;4.32;;
12059;SDS011;6091;51.432;6.880;2022-12-05T12:17:53;6.25;;;3.65;;
12059;SDS011;6091;51.432;6.880;2022-12-05T12:21:12;5.05;;;3.70;;
12059;SDS011;6091;51.432;6.880;2022-12-05T12:26:50;9.57;;;4.75;;
12059;SDS011;6091;51.432;6.880;2022-12-05T12:30:05;6.40;;;3.80;;
12059;SDS011;6091;51.432;6.880;2022-12-05T12:32:47;7.25;;;3.90;;
12059;SDS011;6091;51.432;6.880;2022-12-05T12:38:31;6.72;;;3.40;;
12059;SDS011;6091;51.432;6.880;2022-12-05T12:56:11;7.63;;;3.40;;
12059;SDS011;6091;51.432;6.880;2022-12-05T13:04:56;3.67;;;3.00;;
12059;SDS011;6091;51.432;6.880;2022-12-05T13:07:50;8.40;;;3.28;;
12059;SDS011;6091;51.432;6.880;2022-12-05T13:10:38;8.85;;;3.42;;
12059;SDS011;6091;51.432;6.880;2022-12-05T13:13:17;10.65;;;3.83;;
12059;SDS011;6091;51.432;6.880;2022-12-05T13:15:53;9.82;;;3.95;;
12059;SDS011;6091;51.432;6.880;2022-12-05T13:18:25;5.38;;;3.28;;
12059;SDS011;6091;51.432;6.880;2022-12-05T13:20:53;4.93;;;3.67;;
12059;SDS011;6091;51.432;6.880;2022-12-05T13:23:30;6.47;;;3.65;;
12059;SDS011;6091;51.432;6.880;2022-12-05T13:26:06;8.15;;;3.92;;
12059;SDS011;6091;51.432;6.880;2022-12-05T13:28:48;5.45;;;3.60;;
12059;SDS011;6091;51.432;6.880;2022-12-05T13:36:54;9.15;;;3.58;;
12059;SDS011;6091;51.432;6.880;2022-12-05T13:39:49;3.30;;;2.80;;
12059;SDS011;6091;51.432;6.880;2022-12-05T13:42:38;6.78;;;3.95;;
12059;SDS011;6091;51.432;6.880;2022-12-05T13:45:07;9.90;;;3.92;;
12059;SDS011;6091;51.432;6.880;2022-12-05T13:58:49;6.00;;;3.17;;
12059;SDS011;6091;51.432;6.880;2022-12-05T14:03:54;4.65;;;3.05;;
12059;SDS011;6091;51.432;6.880;2022-12-05T14:06:54;6.18;;;3.33;;
12059;SDS011;6091;51.432;6.880;2022-12-05T14:09:28;6.65;;;3.60;;
12059;SDS011;6091;51.432;6.880;2022-12-05T14:17:40;5.13;;;3.10;;
12059;SDS011;6091;51.432;6.880;2022-12-05T14:29:14;4.97;;;3.25;;
12059;SDS011;6091;51.432;6.880;2022-12-05T14:34:54;4.40;;;2.88;;
12059;SDS011;6091;51.432;6.880;2022-12-05T14:37:41;4.05;;;3.22;;
12059;SDS011;6091;51.432;6.880;2022-12-05T14:40:41;4.18;;;2.63;;
12059;SDS011;6091;51.432;6.880;2022-12-05T14:46:01;5.55;;;3.85;;
12059;SDS011;6091;51.432;6.880;2022-12-05T14:48:41;7.00;;;3.88;;
12059;SDS011;6091;51.432;6.880;2022-12-05T14:54:20;6.65;;;3.97;;
12059;SDS011;6091;51.432;6.880;2022-12-05T14:56:50;4.35;;;3.58;;
12059;SDS011;6091;51.432;6.880;2022-12-05T14:59:50;4.18;;;3.00;;
12059;SDS011;6091;51.432;6.880;2022-12-05T15:02:38;4.18;;;3.00;;
12059;SDS011;6091;51.432;6.880;2022-12-05T15:07:59;4.28;;;3.22;;
12059;SDS011;6091;51.432;6.880;2022-12-05T15:10:32;5.65;;;3.50;;
12059;SDS011;6091;51.432;6.880;2022-12-05T15:18:45;6.88;;;3.28;;
12059;SDS011;6091;51.432;6.880;2022-12-05T15:21:21;5.47;;;3.78;;
12059;SDS011;6091;51.432;6.880;2022-12-05T15:24:14;4.45;;;2.75;;
12059;SDS011;6091;51.432;6.880;2022-12-05T15:32:03;6.32;;;3.78;;
12059;SDS011;6091;51.432;6.880;2022-12-05T15:40:22;3.63;;;3.15;;
12059;SDS011;6091;51.432;6.880;2022-12-05T15:42:52;2.78;;;2.58;;
12059;SDS011;6091;51.432;6.880;2022-12-05T15:53:14;3.38;;;2.72;;
12059;SDS011;6091;51.432;6.880;2022-12-05T15:55:56;5.43;;;3.28;;
12059;SDS011;6091;51.432;6.880;2022-12-05T16:01:27;3.95;;;3.00;;
12059;SDS011;6091;51.432;6.880;2022-12-05T16:03:56;4.82;;;3.30;;
12059;SDS011;6091;51.432;6.880;2022-12-05T16:06:54;4.47;;;3.67;;
12059;SDS011;6091;51.432;6.880;2022-12-05T16:09:23;3.53;;;2.95;;
12059;SDS011;6091;51.432;6.880;2022-12-05T16:11:57;3.20;;;2.90;;
12059;SDS011;6091;51.432;6.880;2022-12-05T16:14:32;4.88;;;3.10;;
12059;SDS011;6091;51.432;6.880;2022-12-05T16:17:24;3.72;;;3.03;;
12059;SDS011;6091;51.432;6.880;2022-12-05T16:20:08;6.32;;;3.35;;
12059;SDS011;6091;51.432;6.880;2022-12-05T16:23:21;4.20;;;2.92;;
12059;SDS011;6091;51.432;6.880;2022-12-05T16:28:58;6.82;;;3.28;;
12059;SDS011;6091;51.432;6.880;2022-12-05T16:31:27;3.30;;;3.00;;
12059;SDS011;6091;51.432;6.880;2022-12-05T16:34:06;4.32;;;3.10;;
12059;SDS011;6091;51.432;6.880;2022-12-05T16:36:47;4.18;;;2.67;;
12059;SDS011;6091;51.432;6.880;2022-12-05T16:39:19;4.50;;;3.38;;
12059;SDS011;6091;51.432;6.880;2022-12-05T16:41:51;3.63;;;2.90;;
12059;SDS011;6091;51.432;6.880;2022-12-05T16:46:53;5.43;;;3.38;;
12059;SDS011;6091;51.432;6.880;2022-12-05T16:49:34;3.25;;;2.90;;
12059;SDS011;6091;51.432;6.880;2022-12-05T16:52:12;6.40;;;3.30;;
12059;SDS011;6091;51.432;6.880;2022-12-05T16:54:40;3.22;;;2.92;;
12059;SDS011;6091;51.432;6.880;2022-12-05T16:57:12;3.42;;;3.13;;
12059;SDS011;6091;51.432;6.880;2022-12-05T16:59:41;3.60;;;2.95;;
12059;SDS011;6091;51.432;6.880;2022-12-05T17:02:11;4.57;;;3.17;;
12059;SDS011;6091;51.432;6.880;2022-12-05T17:04:42;6.20;;;3.73;;
12059;SDS011;6091;51.432;6.880;2022-12-05T17:07:14;3.42;;;2.97;;
12059;SDS011;6091;51.432;6.880;2022-12-05T17:09:41;4.43;;;2.97;;
12059;SDS011;6091;51.432;6.880;2022-12-05T17:12:14;6.93;;;2.90;;
12059;SDS011;6091;51.432;6.880;2022-12-05T17:14:49;3.95;;;2.85;;
12059;SDS011;6091;51.432;6.880;2022-12-05T17:17:16;3.90;;;2.80;;
12059;SDS011;6091;51.432;6.880;2022-12-05T17:19:44;5.80;;;3.10;;
12059;SDS011;6091;51.432;6.880;2022-12-05T17:22:11;5.90;;;2.97;;
12059;SDS011;6091;51.432;6.880;2022-12-05T17:24:40;4.88;;;2.78;;
12059;SDS011;6091;51.432;6.880;2022-12-05T17:27:08;2.75;;;2.38;;
12059;SDS011;6091;51.432;6.880;2022-12-05T17:29:37;4.03;;;2.90;;
12059;SDS011;6091;51.432;6.880;2022-12-05T17:32:04;3.65;;;2.90;;
12059;SDS011;6091;51.432;6.880;2022-12-05T17:34:31;2.85;;;2.42;;
12059;SDS011;6091;51.432;6.880;2022-12-05T17:36:58;5.43;;;2.90;;
12059;SDS011;6091;51.432;6.880;2022-12-05T17:39:25;4.50;;;2.83;;
12059;SDS011;6091;51.432;6.880;2022-12-05T17:41:54;3.92;;;2.80;;
12059;SDS011;6091;51.432;6.880;2022-12-05T17:44:21;2.70;;;2.40;;
12059;SDS011;6091;51.432;6.880;2022-12-05T17:46:48;3.35;;;2.42;;
12059;SDS011;6091;51.432;6.880;2022-12-05T17:49:16;2.80;;;2.60;;
12059;SDS011;6091;51.432;6.880;2022-12-05T17:51:43;3.10;;;2.78;;
12059;SDS011;6091;51.432;6.880;2022-12-05T17:54:31;2.90;;;2.17;;
12059;SDS011;6091;51.432;6.880;2022-12-05T17:56:58;3.00;;;2.33;;
12059;SDS011;6091;51.432;6.880;2022-12-05T17:59:25;2.80;;;2.28;;
12059;SDS011;6091;51.432;6.880;2022-12-05T18:01:52;2.40;;;2.20;;
12059;SDS011;6091;51.432;6.880;2022-12-05T18:04:19;3.55;;;2.63;;
12059;SDS011;6091;51.432;6.880;2022-12-05T18:06:48;2.60;;;2.40;;
12059;SDS011;6091;51.432;6.880;2022-12-05T18:09:16;2.88;;;2.60;;
12059;SDS011;6091;51.432;6.880;2022-12-05T18:11:43;3.40;;;2.55;;
12059;SDS011;6091;51.432;6.880;2022-12-05T18:14:10;2.70;;;2.50;;
12059;SDS011;6091;51.432;6.880;2022-12-05T18:16:38;4.15;;;2.67;;
12059;SDS011;6091;51.432;6.880;2022-12-05T18:19:07;2.83;;;2.53;;
12059;SDS011;6091;51.432;6.880;2022-12-05T18:21:34;2.53;;;2.33;;
12059;SDS011;6091;51.432;6.880;2022-12-05T18:24:01;2.72;;;2.30;;
12059;SDS011;6091;51.432;6.880;2022-12-05T18:26:28;3.38;;;2.60;;
12059;SDS011;6091;51.432;6.880;2022-12-05T18:28:56;2.80;;;2.60;;
12059;SDS011;6091;51.432;6.880;2022-12-05T18:31:27;2.40;;;2.20;;
12059;SDS011;6091;51.432;6.880;2022-12-05T18:33:56;3.08;;;2.40;;
12059;SDS011;6091;51.432;6.880;2022-12-05T18:36:23;2.28;;;2.17;;
12059;SDS011;6091;51.432;6.880;2022-12-05T18:38:53;2.70;;;2.50;;
12059;SDS011;6091;51.432;6.880;2022-12-05T18:41:23;2.50;;;2.30;;
12059;SDS011;6091;51.432;6.880;2022-12-05T18:43:54;2.55;;;2.33;;
12059;SDS011;6091;51.432;6.880;2022-12-05T18:46:22;2.55;;;2.35;;
12059;SDS011;6091;51.432;6.880;2022-12-05T18:48:50;2.55;;;2.35;;
12059;SDS011;6091;51.432;6.880;2022-12-05T18:51:18;2.60;;;2.40;;